Time;durP1;ratioP1;P1;durP2;ratioP2;P2;SDS_P1;SDS_P2;PMS_P1;PMS_P2;Temp;Humidity;BMP_temperature;BMP_pressure;BME280_temperature;BME280_humidity;BME280_pressure;Samples;Min_cycle;Max_cycle;Signal;HPM_P1;HPM_P2
2022/08/18 00:01:39;;;;;;;2.23;2.10;;;;;;;20.24;82.70;99959.50;4991776;28;20658;-75
2022/08/18 00:04:06;;;;;;;2.47;2.03;;;;;;;20.32;82.60;99967.50;4991913;28;20221;-75
2022/08/18 00:06:31;;;;;;;2.87;2.20;;;;;;;20.41;82.51;99975.47;4991785;28;20179;-75
2022/08/18 00:08:58;;;;;;;1.43;1.33;;;;;;;20.38;82.41;99965.91;4991189;28;20233;-75
2022/08/18 00:11:24;;;;;;;1.40;1.33;;;;;;;20.34;82.84;99969.88;4972438;28;20188;-75
2022/08/18 00:13:50;;;;;;;1.37;1.27;;;;;;;20.33;83.19;99968.28;4972371;28;20254;-76
2022/08/18 00:16:15;;;;;;;6.00;3.60;;;;;;;20.37;83.11;99969.09;4972347;28;20278;-75
2022/08/18 00:18:40;;;;;;;1.73;1.03;;;;;;;20.41;83.17;99959.66;4971673;28;20221;-75
2022/08/18 00:21:06;;;;;;;3.63;3.43;;;;;;;20.45;83.53;99960.44;4972239;28;20222;-75
2022/08/18 00:23:32;;;;;;;3.23;2.77;;;;;;;20.45;83.86;99967.97;4972207;28;20528;-75
2022/08/18 00:25:59;;;;;;;2.03;1.93;;;;;;;20.43;83.64;99970.34;4972079;28;20623;-75
2022/08/18 00:28:24;;;;;;;3.10;2.80;;;;;;;20.37;84.08;99961.56;4971926;28;20671;-76
2022/08/18 00:30:50;;;;;;;2.93;2.73;;;;;;;20.36;84.78;99967.50;4972018;28;20195;-74
2022/08/18 00:33:15;;;;;;;1.93;1.83;;;;;;;20.33;85.53;99971.84;4972019;28;20210;-74
2022/08/18 00:35:40;;;;;;;2.30;2.10;;;;;;;20.30;85.98;99967.09;4972026;28;20238;-75
2022/08/18 00:38:07;;;;;;;3.03;2.83;;;;;;;20.27;86.85;99961.53;4971813;28;20229;-75
2022/08/18 00:40:39;;;;;;;3.00;2.70;;;;;;;20.24;87.39;99960.31;4971431;28;20175;-75
2022/08/18 00:43:07;;;;;;;2.30;2.20;;;;;;;20.21;87.92;99972.19;4972130;28;20167;-75
2022/08/18 00:45:36;;;;;;;2.17;2.07;;;;;;;20.17;88.59;99976.91;4972027;28;20535;-74
2022/08/18 00:48:07;;;;;;;2.23;2.07;;;;;;;20.15;88.94;99971.75;4971680;28;20252;-75
2022/08/18 00:50:39;;;;;;;1.37;1.30;;;;;;;20.11;89.41;99976.50;4971476;28;20197;-75
2022/08/18 00:53:34;;;;;;;3.03;2.77;;;;;;;20.06;90.13;99976.06;4971870;28;20500;-74
2022/08/18 00:56:07;;;;;;;0.90;0.90;;;;;;;20.04;90.41;99976.44;4972149;28;20724;-75
2022/08/18 00:58:42;;;;;;;3.50;3.20;;;;;;;20.01;91.01;99977.22;4971144;28;20166;-75
2022/08/18 01:01:10;;;;;;;2.63;2.40;;;;;;;19.98;91.35;99978.00;4971674;28;20170;-75
2022/08/18 01:03:38;;;;;;;2.77;2.67;;;;;;;19.95;91.87;99969.63;4971923;28;20233;-75
2022/08/18 01:06:47;;;;;;;4.10;3.80;;;;;;;19.91;91.98;99966.84;4987666;28;20633;-75
2022/08/18 01:09:13;;;;;;;3.10;2.93;;;;;;;19.92;92.29;99972.00;4990157;28;20280;-75
2022/08/18 01:11:38;;;;;;;8.77;3.83;;;;;;;19.87;92.90;99974.34;4990946;28;20622;-75
2022/08/18 01:14:06;;;;;;;4.57;4.23;;;;;;;19.86;93.31;99968.00;4991061;28;20206;-76
2022/08/18 01:22:16;;;;;;;4.10;3.80;;;;;;;19.74;94.78;99973.06;4990807;28;20193;-74
2022/08/18 01:27:30;;;;;;;5.53;5.13;;;;;;;19.63;96.45;99961.09;4991172;28;20172;-75
2022/08/18 01:29:57;;;;;;;4.93;4.50;;;;;;;19.59;97.21;99964.66;4990790;28;20197;-75
2022/08/18 01:32:23;;;;;;;8.80;7.97;;;;;;;19.58;97.94;99951.19;4990709;28;20261;-75
2022/08/18 01:34:50;;;;;;;6.93;6.30;;;;;;;19.55;98.56;99968.59;4990783;28;20190;-74
2022/08/18 01:37:19;;;;;;;2.60;2.50;;;;;;;19.51;99.24;99970.47;4990591;28;20211;-75
2022/08/18 01:39:45;;;;;;;4.47;4.13;;;;;;;19.54;99.54;99972.50;4990351;28;20280;-75
2022/08/18 01:42:12;;;;;;;5.73;5.23;;;;;;;19.51;99.75;99971.25;4990819;28;20260;-74
2022/08/18 01:44:40;;;;;;;15.60;5.27;;;;;;;19.55;100.00;99971.34;4990752;28;20196;-76
2022/08/18 01:47:06;;;;;;;3.43;3.23;;;;;;;19.54;100.00;99967.78;4990481;28;20169;-74
2022/08/18 01:49:32;;;;;;;5.43;5.03;;;;;;;19.54;100.00;99973.31;4990430;28;20201;-75
2022/08/18 01:51:57;;;;;;;3.70;3.30;;;;;;;19.56;100.00;99965.41;4990705;28;20524;-74
2022/08/18 01:54:22;;;;;;;5.70;5.23;;;;;;;19.59;100.00;99972.97;4990907;28;20604;-76
2022/08/18 01:56:48;;;;;;;3.40;2.67;;;;;;;19.63;100.00;99970.22;4990514;28;20802;-75
2022/08/18 01:59:14;;;;;;;5.97;5.57;;;;;;;19.61;100.00;99967.03;4992549;28;20177;-75
2022/08/18 02:01:42;;;;;;;6.07;5.57;;;;;;;19.58;100.00;99965.81;4993846;28;20757;-75
2022/08/18 02:04:09;;;;;;;8.07;6.30;;;;;;;19.53;100.00;99971.72;4994191;28;20184;-75
2022/08/18 02:06:35;;;;;;;4.83;4.37;;;;;;;19.48;100.00;99969.28;4993775;28;20369;-75
2022/08/18 02:09:00;;;;;;;6.70;6.10;;;;;;;19.48;100.00;99968.47;4993934;28;20259;-74
2022/08/18 02:11:26;;;;;;;4.30;3.00;;;;;;;19.45;100.00;99970.03;4993792;28;20178;-74
2022/08/18 02:13:52;;;;;;;5.37;4.97;;;;;;;19.47;100.00;99970.44;4993997;28;20176;-74
2022/08/18 02:16:17;;;;;;;8.53;7.83;;;;;;;19.48;100.00;99968.47;4993959;28;20181;-75
2022/08/18 02:18:42;;;;;;;5.70;4.90;;;;;;;19.48;100.00;99972.03;4991934;28;20185;-74
2022/08/18 02:21:12;;;;;;;9.00;8.23;;;;;;;19.50;100.00;99972.44;4992512;28;20346;-75
2022/08/18 02:23:39;;;;;;;11.03;10.03;;;;;;;19.50;100.00;99972.44;4992703;28;20589;-74
2022/08/18 02:26:10;;;;;;;10.07;9.27;;;;;;;19.51;100.00;99968.50;4993621;28;20178;-75
2022/08/18 02:28:35;;;;;;;11.47;10.37;;;;;;;19.50;100.00;99978.00;4992893;28;20617;-74
2022/08/18 02:31:06;;;;;;;12.00;10.50;;;;;;;19.50;100.00;99974.44;4993582;28;20215;-75
2022/08/18 02:33:32;;;;;;;14.30;12.90;;;;;;;19.46;100.00;99982.72;4993670;28;20188;-74
2022/08/18 02:35:58;;;;;;;13.23;9.50;;;;;;;19.41;100.00;99977.53;4992305;28;20181;-74
2022/08/18 02:38:23;;;;;;;17.53;15.80;;;;;;;19.37;100.00;99978.66;4993012;28;20189;-75
2022/08/18 02:40:59;;;;;;;8.70;7.83;;;;;;;19.33;100.00;99978.63;4993341;28;20228;-74
2022/08/18 02:43:26;;;;;;;6.87;6.37;;;;;;;19.31;100.00;99981.78;4993321;28;20184;-74
2022/08/18 02:45:51;;;;;;;12.73;11.70;;;;;;;19.31;100.00;99978.22;4993519;28;20539;-76
2022/08/18 02:48:35;;;;;;;18.27;13.13;;;;;;;19.30;100.00;99976.63;4993098;28;20210;-75
2022/08/18 02:51:05;;;;;;;18.10;16.27;;;;;;;19.26;100.00;99981.34;4993278;28;20165;-75
2022/08/18 02:53:31;;;;;;;26.03;12.53;;;;;;;19.23;100.00;99976.56;4993278;28;20593;-74
2022/08/18 02:56:23;;;;;;;11.23;10.33;;;;;;;19.19;100.00;99984.03;4993218;28;20180;-74
2022/08/18 02:59:00;;;;;;;12.83;7.70;;;;;;;19.16;100.00;99976.50;4992585;28;20224;-74
2022/08/18 03:01:28;;;;;;;67.77;12.90;;;;;;;19.14;100.00;99976.09;4991906;28;20208;-75
2022/08/18 03:03:55;;;;;;;8.23;7.63;;;;;;;19.11;100.00;99963.00;4993002;28;20257;-74
2022/08/18 03:06:22;;;;;;;16.50;11.37;;;;;;;19.05;100.00;99978.34;4992817;28;20184;-73
2022/08/18 03:08:49;;;;;;;11.77;9.80;;;;;;;19.00;100.00;99973.97;4990777;28;20217;-74
2022/08/18 03:11:20;;;;;;;18.73;16.33;;;;;;;18.94;100.00;99981.81;4991908;28;20173;-75
2022/08/18 03:13:46;;;;;;;14.57;13.13;;;;;;;18.88;100.00;99986.09;4992999;28;20173;-75
2022/08/18 03:16:12;;;;;;;12.10;10.83;;;;;;;18.86;100.00;99982.91;4991445;28;20232;-75
2022/08/18 03:18:40;;;;;;;13.30;12.37;;;;;;;18.84;100.00;99988.03;4992158;28;20363;-75
2022/08/18 03:21:13;;;;;;;16.27;13.27;;;;;;;18.84;100.00;99984.47;4992766;28;20182;-75
2022/08/18 03:23:39;;;;;;;9.07;6.73;;;;;;;18.82;100.00;99984.84;4992844;28;20257;-75
2022/08/18 03:26:10;;;;;;;11.90;10.83;;;;;;;18.84;100.00;99984.47;4993060;28;20188;-73
2022/08/18 03:28:35;;;;;;;11.50;10.50;;;;;;;18.83;100.00;99982.88;4993526;28;20193;-72
2022/08/18 03:31:01;;;;;;;16.07;13.03;;;;;;;18.81;100.00;99974.16;5000373;28;20228;-72
2022/08/18 03:33:26;;;;;;;12.63;11.37;;;;;;;18.80;100.00;99975.31;4993191;28;20173;-72
2022/08/18 03:35:51;;;;;;;10.80;9.80;;;;;;;18.81;100.00;99974.97;4992686;28;20265;-72
2022/08/18 03:38:17;;;;;;;22.03;17.80;;;;;;;18.81;100.00;99977.72;4992809;28;20315;-72
2022/08/18 03:40:42;;;;;;;17.93;14.63;;;;;;;18.83;100.00;99971.81;4992917;28;20177;-72
2022/08/18 03:43:07;;;;;;;15.17;13.37;;;;;;;18.85;100.00;99978.56;4992496;28;20269;-73
2022/08/18 03:45:33;;;;;;;19.90;17.00;;;;;;;18.88;100.00;99977.78;4992406;28;20225;-73
2022/08/18 03:48:00;;;;;;;13.80;12.50;;;;;;;18.89;100.00;99973.84;4992124;28;20560;-72
2022/08/18 03:50:29;;;;;;;23.33;15.13;;;;;;;18.91;100.00;99982.56;4992291;28;20173;-72
2022/08/18 03:52:58;;;;;;;14.47;13.00;;;;;;;18.91;100.00;99985.34;4992463;28;20192;-73
2022/08/18 03:55:24;;;;;;;7.03;6.53;;;;;;;18.91;100.00;99985.34;4992158;28;20169;-73
2022/08/18 03:57:51;;;;;;;8.53;7.23;;;;;;;18.94;100.00;99989.31;4992000;28;20177;-72
2022/08/18 04:00:17;;;;;;;13.17;11.83;;;;;;;18.91;100.00;99988.09;4992083;28;20207;-72
2022/08/18 04:02:42;;;;;;;19.10;14.37;;;;;;;18.89;100.00;99992.44;4991846;28;20185;-72
2022/08/18 04:05:10;;;;;;;8.37;7.53;;;;;;;18.88;100.00;99985.31;4992008;28;20251;-72
2022/08/18 04:07:35;;;;;;;12.30;8.53;;;;;;;18.84;100.00;100003.84;4991674;28;20251;-72
2022/08/18 04:10:01;;;;;;;8.93;8.23;;;;;;;18.81;100.00;99991.56;4991544;28;20193;-72
2022/08/18 04:12:26;;;;;;;5.67;5.23;;;;;;;18.82;100.00;100009.78;4991882;28;20196;-73
2022/08/18 04:14:52;;;;;;;9.97;8.83;;;;;;;18.85;100.00;100006.22;4992173;28;20219;-72
2022/08/18 04:17:23;;;;;;;17.10;15.70;;;;;;;18.86;100.00;100013.38;4991689;28;20771;-72
2022/08/18 04:19:50;;;;;;;13.87;7.80;;;;;;;18.83;100.00;100016.91;4991544;28;20162;-72
2022/08/18 04:22:16;;;;;;;3.30;3.10;;;;;;;18.84;100.00;100014.91;4991362;28;20169;-72
2022/08/18 04:24:42;;;;;;;3.20;2.93;;;;;;;18.84;100.00;100021.25;4991758;28;20173;-72
2022/08/18 04:27:08;;;;;;;12.47;11.30;;;;;;;18.85;100.00;100024.81;4991543;28;20195;-72
2022/08/18 04:29:33;;;;;;;9.40;8.50;;;;;;;18.85;100.00;100025.63;4991162;28;20656;-73
2022/08/18 04:32:03;;;;;;;0.33;0.33;;;;;;;18.88;100.00;100030.38;4991507;28;20174;-73
2022/08/18 04:34:29;;;;;;;2.37;2.27;;;;;;;18.88;100.00;100030.38;4991911;28;20184;-72
2022/08/18 04:36:55;;;;;;;4.07;3.30;;;;;;;18.89;100.00;100040.28;4991646;28;20581;-73
2022/08/18 04:39:22;;;;;;;9.80;5.97;;;;;;;18.95;100.00;100044.34;4991183;28;20171;-73
2022/08/18 04:41:47;;;;;;;6.00;4.70;;;;;;;19.00;100.00;100043.97;4991376;28;20252;-72
2022/08/18 04:44:16;;;;;;;2.47;2.37;;;;;;;19.02;100.00;100038.84;4991422;28;20198;-73
2022/08/18 04:46:47;;;;;;;4.63;3.97;;;;;;;19.08;100.00;100030.19;4991217;28;20170;-72
2022/08/18 04:49:14;;;;;;;8.60;8.00;;;;;;;19.09;100.00;100035.34;4990939;28;20209;-72
2022/08/18 04:54:37;;;;;;;16.80;9.57;;;;;;;19.15;100.00;100036.63;4991200;28;20300;-73
2022/08/18 04:57:15;;;;;;;12.87;11.10;;;;;;;19.14;100.00;100031.47;4991230;28;20192;-72
2022/08/18 04:59:44;;;;;;;11.27;10.20;;;;;;;19.13;100.00;100030.69;4991105;28;20201;-72
2022/08/18 05:02:10;;;;;;;14.67;11.33;;;;;;;19.13;100.00;100024.34;4991257;28;20207;-72
2022/08/18 05:04:39;;;;;;;13.77;11.30;;;;;;;19.10;100.00;100036.97;4991235;28;20229;-72
2022/08/18 05:07:06;;;;;;;16.47;12.97;;;;;;;19.07;100.00;100034.16;4989543;28;20193;-72
2022/08/18 05:09:32;;;;;;;12.57;11.30;;;;;;;19.05;100.00;100029.00;4990674;28;20201;-72
2022/08/18 05:12:00;;;;;;;11.17;7.83;;;;;;;19.02;100.00;100038.84;4991150;28;20177;-73
2022/08/18 05:14:25;;;;;;;19.77;14.33;;;;;;;18.99;100.00;100047.94;4989877;28;20234;-72
2022/08/18 05:16:50;;;;;;;12.33;11.20;;;;;;;18.94;100.00;100034.41;4990903;28;20416;-72
2022/08/18 05:19:21;;;;;;;13.50;12.20;;;;;;;18.90;100.00;100041.09;4991075;28;20173;-72
2022/08/18 05:21:46;;;;;;;10.13;7.47;;;;;;;18.89;100.00;100048.59;4991278;28;20162;-73
2022/08/18 05:24:11;;;;;;;15.37;13.13;;;;;;;18.88;100.00;100040.66;4990969;28;20578;-72
2022/08/18 05:26:37;;;;;;;16.97;8.20;;;;;;;18.89;100.00;100043.06;4991088;28;20285;-73
2022/08/18 05:29:03;;;;;;;12.30;11.23;;;;;;;18.88;100.00;100035.94;4990636;28;20208;-72
2022/08/18 05:31:28;;;;;;;7.67;7.07;;;;;;;18.91;100.00;100037.13;4991056;28;20181;-72
2022/08/18 05:33:55;;;;;;;6.80;3.83;;;;;;;18.94;100.00;100044.69;4993344;28;20169;-73
2022/08/18 05:36:23;;;;;;;8.23;7.03;;;;;;;18.94;100.00;100044.69;4994545;28;20181;-72
2022/08/18 05:39:10;;;;;;;9.37;6.93;;;;;;;18.96;100.00;100051.47;4994202;28;20296;-73
2022/08/18 05:41:40;;;;;;;22.00;6.20;;;;;;;18.98;100.00;100051.06;4994564;28;20655;-73
2022/08/18 05:44:07;;;;;;;4.00;3.70;;;;;;;18.99;100.00;100042.38;4993348;28;20181;-72
2022/08/18 05:46:41;;;;;;;2.13;2.03;;;;;;;19.04;100.00;100063.41;4994375;28;20173;-76
2022/08/18 05:49:07;;;;;;;4.97;4.67;;;;;;;19.07;100.00;100059.06;4994065;28;20205;-72
2022/08/18 05:51:41;;;;;;;2.50;2.40;;;;;;;19.13;100.00;100063.13;4994330;28;20185;-75
2022/08/18 05:56:54;;;;;;;1.20;1.10;;;;;;;19.24;100.00;100069.56;4994231;28;20275;-73
2022/08/18 05:59:31;;;;;;;5.27;4.97;;;;;;;19.28;100.00;100062.88;4993957;28;20193;-73
2022/08/18 06:02:26;;;;;;;8.07;7.50;;;;;;;19.33;100.00;100067.28;4994128;28;20275;-75
2022/08/18 06:04:56;;;;;;;11.13;9.43;;;;;;;19.38;100.00;100072.47;4994074;28;20177;-73
2022/08/18 06:07:57;;;;;;;10.07;9.37;;;;;;;19.43;100.00;100068.59;4993642;28;20200;-74
2022/08/18 06:10:22;;;;;;;14.73;13.20;;;;;;;19.47;100.00;100066.63;4992795;28;20230;-73
2022/08/18 06:12:52;;;;;;;5.83;5.03;;;;;;;19.51;100.00;100068.25;4993881;28;20275;-72
2022/08/18 06:15:28;;;;;;;14.67;12.17;;;;;;;19.57;100.00;100071.53;4994029;28;20227;-72
2022/08/18 06:18:08;;;;;;;20.67;14.70;;;;;;;19.56;100.00;100069.94;4993628;28;20183;-72
2022/08/18 06:20:43;;;;;;;8.40;7.60;;;;;;;19.61;100.00;100073.16;4993445;28;20175;-73
2022/08/18 06:23:23;;;;;;;7.47;6.77;;;;;;;19.69;100.00;100073.22;4993734;28;20239;-73
2022/08/18 06:26:15;;;;;;;27.47;25.03;;;;;;;19.70;100.00;100064.53;4993826;28;20181;-73
2022/08/18 06:29:09;;;;;;;10.50;9.77;;;;;;;19.80;100.00;100065.78;4993374;28;20202;-72
2022/08/18 06:31:47;;;;;;;6.47;6.03;;;;;;;19.89;100.00;100071.81;4992397;28;20268;-72
2022/08/18 06:34:33;;;;;;;2.00;1.90;;;;;;;20.02;100.00;100081.44;4993647;28;20173;-72
2022/08/18 06:37:09;;;;;;;5.10;3.03;;;;;;;20.07;100.00;100071.94;4993450;28;20173;-72
2022/08/18 06:39:49;;;;;;;10.57;4.73;;;;;;;20.09;100.00;100087.00;4993264;28;20799;-74
2022/08/18 06:42:20;;;;;;;16.93;7.30;;;;;;;20.10;100.00;100090.59;4993503;28;20177;-72
2022/08/18 06:44:53;;;;;;;5.70;5.10;;;;;;;20.19;100.00;100086.31;4993269;28;20185;-72
2022/08/18 06:47:40;;;;;;;8.80;7.23;;;;;;;20.25;100.00;100080.41;4991805;28;20264;-73
2022/08/18 06:50:09;;;;;;;14.33;12.30;;;;;;;20.27;100.00;100094.69;4992764;28;20439;-73
2022/08/18 06:52:38;;;;;;;11.13;7.83;;;;;;;20.29;100.00;100097.88;4993160;28;20188;-72
2022/08/18 06:55:14;;;;;;;9.30;8.47;;;;;;;20.27;100.00;100092.72;4993148;28;20185;-76
2022/08/18 06:58:05;;;;;;;1.37;1.33;;;;;;;20.27;100.00;100101.03;4992969;28;20173;-73
2022/08/18 07:00:34;;;;;;;5.20;4.97;;;;;;;20.29;100.00;100090.34;4991456;28;20545;-72
2022/08/18 07:03:08;;;;;;;5.67;5.27;;;;;;;20.33;100.00;100104.25;4993087;28;20260;-73
2022/08/18 07:05:35;;;;;;;3.13;2.97;;;;;;;20.37;100.00;100102.28;4993546;28;20520;-72
2022/08/18 07:08:27;;;;;;;5.97;5.60;;;;;;;20.42;100.00;100108.31;4992872;28;20634;-71
2022/08/18 07:10:53;;;;;;;0.30;0.30;;;;;;;20.52;99.43;100115.09;4992876;28;20184;-72
2022/08/18 07:13:27;;;;;;;4.77;4.20;;;;;;;20.60;96.68;100115.97;4992816;28;20665;-72
2022/08/18 07:16:26;;;;;;;6.03;5.07;;;;;;;20.64;95.42;100109.22;4992829;28;20637;-71
2022/08/18 07:18:52;;;;;;;10.57;9.67;;;;;;;20.71;93.55;100114.03;4992314;28;20173;-72
2022/08/18 07:21:29;;;;;;;2.33;2.17;;;;;;;20.74;93.26;100110.50;4989527;28;20579;-73
2022/08/18 07:24:06;;;;;;;7.90;7.20;;;;;;;20.74;93.05;100116.84;4992489;28;20277;-72
2022/08/18 07:26:59;;;;;;;8.40;7.73;;;;;;;20.87;92.96;100117.31;4992647;28;20675;-72
2022/08/18 07:29:25;;;;;;;10.10;9.07;;;;;;;20.97;92.71;100121.31;4992278;28;20214;-72
2022/08/18 07:31:53;;;;;;;3.87;3.57;;;;;;;21.01;91.80;100125.72;4992454;28;20309;-72
2022/08/18 07:34:26;;;;;;;6.33;5.50;;;;;;;21.03;90.09;100130.88;4992389;28;20364;-73
2022/08/18 07:37:02;;;;;;;8.77;7.97;;;;;;;21.13;90.51;100116.25;4992318;28;20668;-73
2022/08/18 07:39:53;;;;;;;4.97;4.57;;;;;;;21.21;89.71;100128.16;4992133;28;20181;-72
2022/08/18 07:42:33;;;;;;;1.47;1.40;;;;;;;21.33;89.13;100125.84;4992148;28;20588;-78
2022/08/18 07:45:16;;;;;;;7.27;6.67;;;;;;;21.48;89.03;100132.25;4972823;28;20679;-75
2022/08/18 07:47:59;;;;;;;9.53;8.87;;;;;;;21.54;88.82;100129.88;4971446;28;20567;-74
2022/08/18 07:50:26;;;;;;;12.37;11.13;;;;;;;21.65;88.34;100134.28;4972354;28;20209;-73
2022/08/18 07:53:21;;;;;;;13.83;12.43;;;;;;;21.52;87.46;100135.03;4972729;28;20174;-75
2022/08/18 07:55:53;;;;;;;10.53;9.63;;;;;;;21.53;87.48;100128.28;4987031;28;20196;-80
2022/08/18 07:58:33;;;;;;;3.90;3.63;;;;;;;21.56;87.26;100127.53;4990692;28;20181;-75
2022/08/18 08:01:20;;;;;;;6.00;4.17;;;;;;;21.55;86.69;100125.91;4992057;28;20182;-77
2022/08/18 08:03:58;;;;;;;0.77;0.77;;;;;;;21.60;86.18;100129.13;4992120;28;20206;-77
2022/08/18 08:06:41;;;;;;;2.30;2.20;;;;;;;21.59;85.85;100133.09;4992204;28;20168;-78
2022/08/18 08:09:33;;;;;;;0.77;0.77;;;;;;;21.60;86.15;100134.69;4991487;28;20213;-76
2022/08/18 08:12:08;;;;;;;3.63;3.30;;;;;;;21.47;85.13;100127.88;4991813;28;20186;-77
2022/08/18 08:14:45;;;;;;;1.03;0.67;;;;;;;21.52;86.82;100129.47;4991789;28;20172;-75
2022/08/18 08:17:22;;;;;;;0.00;0.00;;;;;;;21.61;86.92;100129.91;4993159;28;20196;-75
2022/08/18 08:20:12;;;;;;;3.10;2.80;;;;;;;21.67;85.49;100131.91;4979081;28;20173;-75
2022/08/18 08:23:16;;;;;;;0.30;0.30;;;;;;;21.69;85.02;100131.50;4990352;28;20182;-75
2022/08/18 08:25:59;;;;;;;1.07;1.07;;;;;;;21.76;85.52;100131.53;4986852;28;20175;-76
2022/08/18 08:28:48;;;;;;;0.77;0.77;;;;;;;21.91;84.59;100140.69;4990770;28;20186;-75
2022/08/18 08:31:32;;;;;;;5.27;4.90;;;;;;;22.05;84.36;100131.56;4991342;28;20186;-76
2022/08/18 08:34:23;;;;;;;5.00;4.57;;;;;;;22.16;83.99;100132.41;4991587;28;20592;-75
2022/08/18 08:36:56;;;;;;;6.60;6.10;;;;;;;22.17;82.66;100128.41;4989740;28;20185;-74
2022/08/18 08:39:31;;;;;;;5.93;5.37;;;;;;;22.20;82.55;100128.41;4991095;28;20181;-75
2022/08/18 08:42:07;;;;;;;4.63;4.33;;;;;;;22.34;81.98;100143.53;4990021;28;20541;-77
2022/08/18 08:44:39;;;;;;;3.70;3.50;;;;;;;22.41;81.83;100138.72;4990028;28;20172;-76
2022/08/18 08:47:37;;;;;;;2.73;2.57;;;;;;;22.31;83.24;100136.75;4991223;28;20205;-76
2022/08/18 08:50:27;;;;;;;0.23;0.23;;;;;;;22.39;84.24;100132.75;4965582;28;20226;-76
2022/08/18 08:53:11;;;;;;;4.60;4.33;;;;;;;22.38;84.67;100138.75;4991321;28;20191;-77
2022/08/18 08:55:44;;;;;;;0.53;0.53;;;;;;;22.22;84.83;100139.94;4991292;28;20176;-75
2022/08/18 08:58:21;;;;;;;4.53;4.30;;;;;;;22.22;84.98;100131.59;4991325;28;20556;-76
2022/08/18 09:00:49;;;;;;;6.63;4.60;;;;;;;22.15;84.68;100125.25;4991101;28;20275;-75
2022/08/18 09:03:24;;;;;;;4.00;3.70;;;;;;;22.40;84.21;100123.22;4991213;28;20189;-75
2022/08/18 09:05:59;;;;;;;0.73;0.73;;;;;;;22.51;82.26;100131.56;4991218;28;20180;-76
2022/08/18 09:08:33;;;;;;;6.50;6.07;;;;;;;22.54;82.12;100125.19;4993667;28;20198;-74
2022/08/18 09:11:20;;;;;;;0.00;0.00;;;;;;;22.58;82.32;100125.22;4994242;28;20210;-75
2022/08/18 09:14:03;;;;;;;1.43;1.43;;;;;;;22.69;81.47;100142.66;4994832;28;20185;-78
2022/08/18 09:16:43;;;;;;;2.87;2.77;;;;;;;22.72;81.05;100142.69;4994827;28;20367;-77
2022/08/18 09:19:36;;;;;;;5.30;4.90;;;;;;;22.73;80.93;100143.47;4990704;28;20184;-76
2022/08/18 09:22:18;;;;;;;6.60;3.90;;;;;;;22.74;81.02;100151.44;4993200;28;20675;-76
2022/08/18 09:24:53;;;;;;;0.73;0.73;;;;;;;22.62;81.20;100148.25;4994652;28;20229;-77
2022/08/18 09:27:21;;;;;;;0.90;0.90;;;;;;;22.56;81.09;100140.28;4994228;28;20173;-73
2022/08/18 09:29:53;;;;;;;0.30;0.30;;;;;;;22.50;81.06;100146.69;4994025;28;20424;-74
2022/08/18 09:32:18;;;;;;;4.63;4.20;;;;;;;22.44;81.65;100157.44;4993525;28;20188;-73
2022/08/18 09:34:46;;;;;;;4.83;4.27;;;;;;;22.44;80.22;100149.09;4995919;28;20179;-72
2022/08/18 09:37:22;;;;;;;1.40;1.40;;;;;;;22.28;80.06;100145.91;4999795;28;20181;-74
2022/08/18 09:43:13;;;;;;;0.00;0.00;;;;;;;22.42;80.95;100154.25;4995323;28;20201;-73
2022/08/18 09:45:53;;;;;;;0.83;0.83;;;;;;;22.40;80.29;100151.06;4994861;28;20686;-73
2022/08/18 09:48:37;;;;;;;0.33;0.33;;;;;;;22.55;80.55;100151.84;4994442;28;20176;-74
2022/08/18 09:51:14;;;;;;;7.27;2.37;;;;;;;22.56;79.81;100159.00;4994544;28;20211;-74
2022/08/18 09:53:46;;;;;;;9.23;2.53;;;;;;;22.51;79.29;100154.63;4994918;28;20513;-74
2022/08/18 09:56:16;;;;;;;0.10;0.10;;;;;;;22.70;79.96;100161.75;4994451;28;20209;-74
2022/08/18 09:59:03;;;;;;;2.87;2.67;;;;;;;22.78;78.69;100163.34;4994007;28;20222;-74
2022/08/18 10:01:36;;;;;;;5.03;4.73;;;;;;;22.88;77.97;100150.63;4994353;28;20181;-74
2022/08/18 10:04:14;;;;;;;13.90;4.23;;;;;;;23.01;78.27;100156.56;4994550;28;20172;-73
2022/08/18 10:06:41;;;;;;;4.57;4.27;;;;;;;23.08;77.50;100150.97;4994003;28;20590;-74
2022/08/18 10:09:15;;;;;;;0.57;0.53;;;;;;;23.14;77.28;100152.91;4992809;28;20657;-74
2022/08/18 10:12:08;;;;;;;0.80;0.80;;;;;;;23.36;76.71;100150.06;4993193;28;20184;-73
2022/08/18 10:14:59;;;;;;;4.07;3.87;;;;;;;23.30;73.80;100148.91;4994078;28;20628;-74
2022/08/18 10:17:55;;;;;;;3.43;3.20;;;;;;;23.34;74.30;100149.66;4993688;28;20184;-74
2022/08/18 10:20:46;;;;;;;18.57;6.50;;;;;;;23.30;75.64;100157.25;4993034;28;20177;-73
2022/08/18 10:23:43;;;;;;;0.87;0.77;;;;;;;23.31;76.34;100150.47;4994141;28;20969;-73
2022/08/18 10:26:36;;;;;;;1.00;0.93;;;;;;;23.25;74.25;100150.09;4993896;28;20203;-73
2022/08/18 10:29:09;;;;;;;7.63;4.83;;;;;;;23.34;74.79;100146.88;4993353;28;20205;-73
2022/08/18 10:31:53;;;;;;;2.10;1.90;;;;;;;23.36;73.49;100148.06;4993663;28;20637;-73
2022/08/18 10:34:55;;;;;;;4.00;3.70;;;;;;;23.48;73.21;100151.59;4993936;28;20542;-75
2022/08/18 10:37:26;;;;;;;3.93;3.20;;;;;;;23.54;71.91;100152.75;4984989;28;20224;-73
2022/08/18 10:39:57;;;;;;;0.50;0.50;;;;;;;23.62;70.50;100145.97;4991638;28;20201;-74
2022/08/18 10:42:27;;;;;;;5.33;4.90;;;;;;;23.88;70.83;100139.81;4992472;28;20182;-75
2022/08/18 10:45:05;;;;;;;0.87;0.87;;;;;;;24.14;72.56;100134.84;4992712;28;20232;-74
2022/08/18 10:47:30;;;;;;;0.67;0.67;;;;;;;24.29;71.50;100131.53;4991272;28;20192;-72
2022/08/18 10:50:00;;;;;;;0.00;0.00;;;;;;;24.41;70.56;100132.25;4990067;28;20552;-72
2022/08/18 10:52:38;;;;;;;1.60;1.50;;;;;;;24.23;69.43;100140.75;4992873;28;20181;-73
2022/08/18 10:55:45;;;;;;;3.20;2.73;;;;;;;24.31;69.52;100148.69;4988833;28;20200;-73
2022/08/18 10:58:16;;;;;;;0.47;0.47;;;;;;;24.16;69.33;100146.38;4992411;28;20538;-73
2022/08/18 11:01:12;;;;;;;1.13;1.13;;;;;;;24.26;69.08;100154.69;4992911;28;20499;-72
2022/08/18 11:03:39;;;;;;;3.00;2.83;;;;;;;24.49;68.44;100147.75;4992923;28;20177;-74
2022/08/18 11:06:12;;;;;;;0.20;0.20;;;;;;;24.37;68.11;100139.88;4990070;28;20199;-76
2022/08/18 11:08:43;;;;;;;1.33;1.30;;;;;;;24.09;68.30;100138.88;4990790;28;20213;-72
2022/08/18 11:11:11;;;;;;;0.07;0.07;;;;;;;24.46;69.11;100140.19;4991895;28;20189;-72
2022/08/18 11:13:50;;;;;;;0.00;0.00;;;;;;;24.69;68.25;100143.13;4992824;28;20180;-72
2022/08/18 11:16:17;;;;;;;0.10;0.10;;;;;;;24.85;67.86;100143.38;4976680;28;20177;-72
2022/08/18 11:18:47;;;;;;;2.50;0.50;;;;;;;24.84;65.09;100138.97;4991745;28;20181;-75
2022/08/18 11:21:30;;;;;;;0.30;0.30;;;;;;;24.87;66.34;100132.56;4989709;28;20199;-75
2022/08/18 11:24:25;;;;;;;0.30;0.30;;;;;;;24.90;65.70;100133.75;4981799;28;20181;-75
2022/08/18 11:26:54;;;;;;;0.00;0.00;;;;;;;25.06;66.22;100122.81;4989347;28;20173;-74
2022/08/18 11:29:32;;;;;;;5.40;4.90;;;;;;;25.14;65.06;100124.28;4991743;28;20204;-73
2022/08/18 11:32:03;;;;;;;0.00;0.00;;;;;;;25.23;63.51;100126.59;4991530;28;20188;-74
2022/08/18 11:34:41;;;;;;;0.27;0.27;;;;;;;25.29;64.10;100122.09;4991246;28;20165;-74
2022/08/18 11:37:25;;;;;;;1.00;1.00;;;;;;;25.62;64.16;100126.06;4992389;28;20170;-75
2022/08/18 11:39:54;;;;;;;0.43;0.43;;;;;;;25.73;63.33;100128.72;4990892;28;20517;-74
2022/08/18 11:42:30;;;;;;;0.73;0.73;;;;;;;25.68;63.77;100124.38;4992472;28;20433;-74
2022/08/18 11:45:16;;;;;;;0.10;0.10;;;;;;;25.82;64.24;100115.00;4992384;28;20172;-74
2022/08/18 11:48:13;;;;;;;2.37;1.40;;;;;;;25.96;60.63;100116.78;4991959;28;20169;-75
2022/08/18 11:50:48;;;;;;;0.00;0.00;;;;;;;25.90;59.79;100118.50;4991601;28;20213;-74
2022/08/18 11:53:21;;;;;;;0.87;0.30;;;;;;;25.89;60.05;100105.69;4992159;28;20173;-75
2022/08/18 11:56:03;;;;;;;0.27;0.27;;;;;;;25.91;58.80;100101.25;4992121;28;20182;-75
2022/08/18 11:58:47;;;;;;;1.70;1.60;;;;;;;25.84;59.99;100097.78;4991501;28;20173;-73
2022/08/18 12:01:54;;;;;;;0.40;0.40;;;;;;;25.95;60.26;100090.00;4991980;28;20177;-75
2022/08/18 12:04:20;;;;;;;3.03;2.83;;;;;;;26.14;59.55;100091.28;4991875;28;20197;-76
2022/08/18 12:06:58;;;;;;;3.07;2.90;;;;;;;26.25;60.86;100094.69;4991460;28;20252;-72
2022/08/18 12:09:39;;;;;;;0.50;0.50;;;;;;;26.10;61.78;100083.72;4990301;28;20576;-72